createdAt,value
2022-09-07T00:00:09.471Z,526.13
2022-09-07T00:00:21.444Z,526.16
2022-09-07T00:00:32.453Z,526.20
2022-09-07T00:00:43.469Z,526.25
2022-09-07T00:00:55.480Z,526.29
2022-09-07T00:01:06.383Z,526.33
2022-09-07T00:01:17.390Z,526.36
2022-09-07T00:01:28.390Z,526.40
2022-09-07T00:01:39.404Z,526.46
2022-09-07T00:01:50.407Z,526.43
2022-09-07T00:02:01.418Z,526.45
2022-09-07T00:02:12.421Z,526.47
2022-09-07T00:02:23.424Z,526.48
2022-09-07T00:02:34.479Z,526.55
2022-09-07T00:02:45.521Z,526.58
2022-09-07T00:02:56.437Z,526.58
2022-09-07T00:03:07.572Z,526.61
2022-09-07T00:03:18.612Z,526.63
2022-09-07T00:03:29.485Z,526.67
2022-09-07T00:03:40.461Z,526.71
2022-09-07T00:03:51.513Z,526.74
2022-09-07T00:04:03.491Z,526.74
2022-09-07T00:04:14.504Z,526.72
2022-09-07T00:04:25.497Z,526.72
2022-09-07T00:04:36.542Z,526.74
2022-09-07T00:04:48.416Z,526.77
2022-09-07T00:05:00.421Z,526.79
2022-09-07T00:05:12.426Z,526.78
2022-09-07T00:05:23.438Z,526.80
2022-09-07T00:05:35.529Z,526.79
2022-09-07T00:05:47.429Z,526.78
2022-09-07T00:05:58.439Z,526.78
2022-09-07T00:06:09.448Z,526.78
2022-09-07T00:06:21.445Z,526.83
2022-09-07T00:06:33.456Z,526.86
2022-09-07T00:06:44.469Z,526.87
2022-09-07T00:06:55.475Z,526.88
2022-09-07T00:07:06.379Z,526.87
2022-09-07T00:07:17.398Z,526.86
2022-09-07T00:07:28.388Z,526.84
2022-09-07T00:07:40.396Z,526.85
2022-09-07T00:07:51.420Z,526.88
2022-09-07T00:08:02.430Z,526.90
2022-09-07T00:08:13.436Z,526.88
2022-09-07T00:08:25.446Z,526.87
2022-09-07T00:08:36.443Z,526.82
2022-09-07T00:08:47.460Z,526.84
2022-09-07T00:08:59.453Z,527.01
2022-09-07T00:09:10.466Z,527.00
2022-09-07T00:09:21.469Z,526.98
2022-09-07T00:09:32.479Z,527.00
2022-09-07T00:09:43.394Z,527.01
2022-09-07T00:09:54.404Z,527.01
2022-09-07T00:10:05.408Z,527.04
2022-09-07T00:10:16.412Z,527.05
2022-09-07T00:10:27.416Z,527.05
2022-09-07T00:10:39.429Z,527.05
2022-09-07T00:10:50.442Z,527.09
2022-09-07T00:11:01.452Z,527.11
2022-09-07T00:11:12.468Z,527.08
2022-09-07T00:11:23.476Z,527.06
2022-09-07T00:11:34.481Z,527.03
2022-09-07T00:11:46.398Z,527.08
2022-09-07T00:11:57.399Z,527.10
2022-09-07T00:12:08.410Z,527.06
2022-09-07T00:12:19.417Z,527.06
2022-09-07T00:12:31.431Z,527.08
2022-09-07T00:12:42.448Z,527.06
2022-09-07T00:12:54.454Z,527.03
2022-09-07T00:13:05.509Z,527.04
2022-09-07T00:13:16.473Z,527.06
2022-09-07T00:13:28.387Z,527.07
2022-09-07T00:13:40.395Z,527.08
2022-09-07T00:13:51.414Z,527.08
2022-09-07T00:14:02.416Z,527.10
2022-09-07T00:14:13.420Z,527.09
2022-09-07T00:14:25.424Z,527.02
2022-09-07T00:14:36.445Z,526.99
2022-09-07T00:14:47.451Z,527.02
2022-09-07T00:14:58.456Z,527.08
2022-09-07T00:15:09.461Z,527.06
2022-09-07T00:15:21.461Z,527.04
2022-09-07T00:15:32.473Z,527.05
2022-09-07T00:15:43.513Z,527.06
2022-09-07T00:15:54.502Z,527.04
2022-09-07T00:16:05.503Z,526.99
2022-09-07T00:16:16.425Z,527.02
2022-09-07T00:16:27.457Z,527.02
2022-09-07T00:16:38.546Z,527.00
2022-09-07T00:16:50.457Z,527.04
2022-09-07T00:17:01.459Z,527.09
2022-09-07T00:17:12.462Z,527.08
2022-09-07T00:17:23.476Z,527.05
2022-09-07T00:17:34.380Z,527.03
2022-09-07T00:17:45.428Z,527.00
2022-09-07T00:17:56.397Z,526.98
2022-09-07T00:18:07.401Z,526.98
2022-09-07T00:18:18.414Z,526.93
2022-09-07T00:18:29.687Z,526.94
2022-09-07T00:18:45.821Z,526.90
2022-09-07T00:18:54.128Z,526.88
2022-09-07T00:19:04.468Z,526.85
2022-09-07T00:19:15.497Z,526.77
2022-09-07T00:19:27.405Z,526.77
2022-09-07T00:19:39.428Z,526.78
2022-09-07T00:19:50.432Z,526.74
2022-09-07T00:20:02.444Z,526.72
2022-09-07T00:20:13.448Z,526.73
2022-09-07T00:20:24.456Z,526.70
2022-09-07T00:20:35.463Z,526.68
2022-09-07T00:20:46.473Z,526.70
2022-09-07T00:20:57.474Z,526.68
2022-09-07T00:21:09.482Z,526.67
2022-09-07T00:21:21.393Z,526.64
2022-09-07T00:21:32.397Z,526.65
2022-09-07T00:21:43.414Z,526.63
2022-09-07T00:21:55.414Z,526.66
2022-09-07T00:22:06.413Z,526.65
2022-09-07T00:22:18.417Z,526.67
2022-09-07T00:22:30.458Z,526.66
2022-09-07T00:22:41.435Z,526.65
2022-09-07T00:22:52.441Z,526.66
2022-09-07T00:23:03.458Z,526.67
2022-09-07T00:23:15.493Z,526.66
2022-09-07T00:23:26.382Z,526.64
2022-09-07T00:23:37.389Z,526.65
2022-09-07T00:23:48.387Z,526.66
2022-09-07T00:23:59.391Z,526.64
2022-09-07T00:24:10.394Z,526.62
2022-09-07T00:24:21.394Z,526.60
2022-09-07T00:24:32.403Z,526.60
2022-09-07T00:24:43.427Z,526.58
2022-09-07T00:24:54.428Z,526.56
2022-09-07T00:25:06.439Z,526.55
2022-09-07T00:25:17.440Z,526.51
2022-09-07T00:25:31.940Z,526.52
2022-09-07T00:25:41.414Z,526.50
2022-09-07T00:25:54.180Z,526.49
2022-09-07T00:26:04.453Z,526.49
2022-09-07T00:26:16.464Z,526.49
2022-09-07T00:26:27.470Z,526.49
2022-09-07T00:26:38.474Z,526.47
2022-09-07T00:26:50.404Z,526.46
2022-09-07T00:27:01.427Z,526.48
2022-09-07T00:27:12.444Z,526.49
2022-09-07T00:27:23.463Z,526.48
2022-09-07T00:27:34.478Z,526.47
2022-09-07T00:27:46.409Z,526.43
2022-09-07T00:27:57.420Z,526.43
2022-09-07T00:28:08.442Z,526.41
2022-09-07T00:28:19.462Z,526.44
2022-09-07T00:28:30.618Z,526.44
2022-09-07T00:28:42.406Z,526.43
2022-09-07T00:28:53.453Z,526.39
2022-09-07T00:29:04.451Z,526.40
2022-09-07T00:29:15.465Z,526.43
2022-09-07T00:29:26.488Z,526.37
2022-09-07T00:29:38.423Z,526.35
2022-09-07T00:29:49.447Z,526.37
2022-09-07T00:30:00.473Z,526.37
2022-09-07T00:30:11.487Z,526.35
2022-09-07T00:30:23.462Z,526.34
2022-09-07T00:30:34.451Z,526.34
2022-09-07T00:30:45.447Z,526.34
2022-09-07T00:30:56.609Z,526.33
2022-09-07T00:31:08.439Z,526.33
2022-09-07T00:31:19.493Z,526.35
2022-09-07T00:31:30.534Z,526.34
2022-09-07T00:31:42.585Z,526.37
2022-09-07T00:31:54.525Z,526.35
2022-09-07T00:32:06.399Z,526.36
2022-09-07T00:32:17.422Z,526.37
2022-09-07T00:32:28.446Z,526.34
2022-09-07T00:32:39.473Z,526.37
2022-09-07T00:32:51.393Z,526.37
2022-09-07T00:33:02.415Z,526.38
2022-09-07T00:33:13.436Z,526.40
2022-09-07T00:33:24.470Z,526.39
2022-09-07T00:33:35.485Z,526.41
2022-09-07T00:33:47.410Z,526.37
2022-09-07T00:33:58.453Z,526.37
2022-09-07T00:34:09.445Z,526.38
2022-09-07T00:34:20.468Z,526.43
2022-09-07T00:34:31.489Z,526.41
2022-09-07T00:34:43.424Z,526.38
2022-09-07T00:34:54.425Z,526.35
2022-09-07T00:35:05.448Z,526.31
2022-09-07T00:35:16.471Z,526.30
2022-09-07T00:35:27.481Z,526.28
2022-09-07T00:35:38.482Z,526.26
2022-09-07T00:35:50.397Z,526.27
2022-09-07T00:36:01.397Z,526.26
2022-09-07T00:36:12.419Z,526.27
2022-09-07T00:36:23.454Z,526.23
2022-09-07T00:36:34.442Z,526.24
2022-09-07T00:36:45.463Z,526.21
2022-09-07T00:36:56.480Z,526.17
2022-09-07T00:37:07.483Z,526.15
2022-09-07T00:37:18.385Z,526.16
2022-09-07T00:37:29.393Z,526.12
2022-09-07T00:37:40.399Z,526.15
2022-09-07T00:37:51.402Z,526.15
2022-09-07T00:38:03.398Z,526.14
2022-09-07T00:38:14.402Z,526.15
2022-09-07T00:38:25.410Z,526.12
2022-09-07T00:38:36.413Z,526.13
2022-09-07T00:38:47.415Z,526.13
2022-09-07T00:38:59.422Z,526.15
2022-09-07T00:39:10.442Z,526.14
2022-09-07T00:39:21.443Z,526.10
2022-09-07T00:39:33.482Z,526.08
2022-09-07T00:39:44.575Z,526.04
2022-09-07T00:39:56.530Z,526.03
2022-09-07T00:40:08.533Z,526.03
2022-09-07T00:40:20.417Z,526.02
2022-09-07T00:40:32.417Z,526.01
2022-09-07T00:40:43.442Z,525.98
2022-09-07T00:40:54.456Z,525.95
2022-09-07T00:41:05.459Z,525.89
2022-09-07T00:41:17.467Z,525.82
2022-09-07T00:41:28.467Z,525.78
2022-09-07T00:41:39.490Z,525.76
2022-09-07T00:41:51.422Z,525.73
2022-09-07T00:42:02.423Z,525.72
2022-09-07T00:42:13.438Z,525.68
2022-09-07T00:42:25.452Z,525.63
2022-09-07T00:42:36.455Z,525.59
2022-09-07T00:42:47.457Z,525.57
2022-09-07T00:42:58.466Z,525.55
2022-09-07T00:43:09.474Z,525.55
2022-09-07T00:43:20.395Z,525.53
2022-09-07T00:43:32.399Z,525.50
2022-09-07T00:43:43.415Z,525.49
2022-09-07T00:43:54.440Z,525.46
2022-09-07T00:44:05.434Z,525.45
2022-09-07T00:44:16.438Z,525.45
2022-09-07T00:44:27.444Z,525.44
2022-09-07T00:44:38.454Z,525.45
2022-09-07T00:44:49.477Z,525.44
2022-09-07T00:45:00.486Z,525.43
2022-09-07T00:45:12.398Z,525.44
2022-09-07T00:45:23.415Z,525.43
2022-09-07T00:45:34.422Z,525.42
2022-09-07T00:45:45.437Z,525.43
2022-09-07T00:45:56.446Z,525.43
2022-09-07T00:46:07.498Z,525.44
2022-09-07T00:46:18.515Z,525.43
2022-09-07T00:46:30.446Z,525.42
2022-09-07T00:46:41.544Z,525.43
2022-09-07T00:46:52.477Z,525.41
2022-09-07T00:47:03.421Z,525.42
2022-09-07T00:47:14.437Z,525.42
2022-09-07T00:47:25.449Z,525.38
2022-09-07T00:47:36.459Z,525.41
2022-09-07T00:47:47.478Z,525.41
2022-09-07T00:47:58.480Z,525.39
2022-09-07T00:48:10.481Z,525.39
2022-09-07T00:48:21.389Z,525.38
2022-09-07T00:48:32.397Z,525.39
2022-09-07T00:48:43.409Z,525.39
2022-09-07T00:48:54.420Z,525.41
2022-09-07T00:49:05.435Z,525.39
2022-09-07T00:49:16.441Z,525.37
2022-09-07T00:49:28.441Z,525.38
2022-09-07T00:49:39.439Z,525.40
2022-09-07T00:49:51.453Z,525.40
2022-09-07T00:50:02.459Z,525.40
2022-09-07T00:50:13.474Z,525.38
2022-09-07T00:50:25.393Z,525.35
2022-09-07T00:50:36.405Z,525.32
2022-09-07T00:50:47.415Z,525.31
2022-09-07T00:50:58.423Z,525.32
2022-09-07T00:51:09.432Z,525.31
2022-09-07T00:51:20.435Z,525.30
2022-09-07T00:51:31.445Z,525.29
2022-09-07T00:51:42.456Z,525.27
2022-09-07T00:51:53.486Z,525.27
2022-09-07T00:52:04.471Z,525.25
2022-09-07T00:52:16.398Z,525.24
2022-09-07T00:52:27.406Z,525.24
2022-09-07T00:52:38.427Z,525.20
2022-09-07T00:52:49.439Z,525.17
2022-09-07T00:53:00.455Z,525.17
2022-09-07T00:53:12.461Z,525.13
2022-09-07T00:53:23.482Z,525.10
2022-09-07T00:53:35.469Z,525.09
2022-09-07T00:53:46.476Z,525.05
2022-09-07T00:53:58.526Z,525.06
2022-09-07T00:54:10.412Z,525.05
2022-09-07T00:54:22.421Z,525.03
2022-09-07T00:54:33.426Z,525.03
2022-09-07T00:54:45.437Z,525.02
2022-09-07T00:54:56.470Z,524.99
2022-09-07T00:55:07.394Z,524.99
2022-09-07T00:55:18.390Z,524.98
2022-09-07T00:55:29.392Z,524.98
2022-09-07T00:55:40.404Z,524.98
2022-09-07T00:55:52.409Z,524.96
2022-09-07T00:56:03.419Z,524.97
2022-09-07T00:56:14.429Z,524.95
2022-09-07T00:56:25.442Z,524.96
2022-09-07T00:56:37.452Z,524.95
2022-09-07T00:56:48.449Z,524.95
2022-09-07T00:57:00.454Z,524.94
2022-09-07T00:57:11.477Z,524.92
2022-09-07T00:57:22.472Z,524.91
2022-09-07T00:57:33.387Z,524.94
2022-09-07T00:57:44.415Z,524.92
2022-09-07T00:57:55.414Z,524.92
2022-09-07T00:58:06.434Z,524.91
2022-09-07T00:58:17.445Z,524.90
2022-09-07T00:58:28.500Z,524.90
2022-09-07T00:58:39.447Z,524.90
2022-09-07T00:58:50.461Z,524.90
2022-09-07T00:59:01.480Z,524.91
2022-09-07T00:59:12.389Z,524.93
2022-09-07T00:59:23.400Z,524.91
2022-09-07T00:59:35.411Z,524.92
2022-09-07T00:59:47.415Z,524.91
2022-09-07T00:59:58.435Z,524.92
2022-09-07T01:00:09.446Z,524.89
2022-09-07T01:00:20.452Z,524.89
2022-09-07T01:00:32.482Z,524.86
2022-09-07T01:00:44.396Z,524.84
2022-09-07T01:00:55.411Z,524.82
2022-09-07T01:01:06.423Z,524.82
2022-09-07T01:01:17.485Z,524.81
2022-09-07T01:01:28.577Z,524.80
2022-09-07T01:01:40.546Z,524.80
2022-09-07T01:01:51.587Z,524.80
2022-09-07T01:02:03.633Z,524.79
2022-09-07T01:02:14.702Z,524.79
2022-09-07T01:02:26.647Z,524.78
2022-09-07T01:02:37.573Z,524.79
2022-09-07T01:02:49.586Z,524.79
2022-09-07T01:03:01.578Z,524.79
2022-09-07T01:03:12.430Z,524.79
2022-09-07T01:03:23.434Z,524.75
2022-09-07T01:03:35.434Z,524.77
2022-09-07T01:03:46.439Z,524.74
2022-09-07T01:03:58.440Z,524.74
2022-09-07T01:04:10.461Z,524.71
2022-09-07T01:04:21.479Z,524.70
2022-09-07T01:04:32.483Z,524.70
2022-09-07T01:04:44.397Z,524.69
2022-09-07T01:04:55.412Z,524.68
2022-09-07T01:05:09.406Z,524.69
2022-09-07T01:05:17.480Z,524.67
2022-09-07T01:05:29.408Z,524.67
2022-09-07T01:05:40.426Z,524.69
2022-09-07T01:05:51.448Z,524.69
2022-09-07T01:06:02.461Z,524.68
2022-09-07T01:06:13.476Z,524.68
2022-09-07T01:06:25.474Z,524.72
2022-09-07T01:06:37.406Z,524.70
2022-09-07T01:06:48.414Z,524.68
2022-09-07T01:07:00.418Z,524.65
2022-09-07T01:07:12.421Z,524.63
2022-09-07T01:07:23.434Z,524.61
2022-09-07T01:07:34.438Z,524.62
2022-09-07T01:07:45.444Z,524.64
2022-09-07T01:07:56.456Z,524.67
2022-09-07T01:08:07.459Z,524.67
2022-09-07T01:08:18.471Z,524.69
2022-09-07T01:08:29.743Z,524.70
2022-09-07T01:08:41.470Z,524.69
2022-09-07T01:08:52.478Z,524.72
2022-09-07T01:09:04.395Z,524.74
2022-09-07T01:09:15.398Z,524.75
2022-09-07T01:09:26.404Z,524.75
2022-09-07T01:09:37.415Z,524.72
2022-09-07T01:09:49.415Z,524.72
2022-09-07T01:10:00.431Z,524.71
2022-09-07T01:10:11.433Z,524.69
2022-09-07T01:10:23.436Z,524.69
2022-09-07T01:10:34.448Z,524.65
2022-09-07T01:10:45.466Z,524.66
2022-09-07T01:10:56.469Z,524.68
2022-09-07T01:11:07.472Z,524.72
2022-09-07T01:11:19.479Z,524.72
2022-09-07T01:11:30.485Z,524.74
2022-09-07T01:11:42.404Z,524.77
2022-09-07T01:11:53.410Z,524.78
2022-09-07T01:12:05.412Z,524.76
2022-09-07T01:12:16.427Z,524.76
2022-09-07T01:12:27.435Z,524.78
2022-09-07T01:12:38.441Z,524.76
2022-09-07T01:12:49.492Z,524.77
2022-09-07T01:13:00.452Z,524.78
2022-09-07T01:13:11.473Z,524.79
2022-09-07T01:13:22.485Z,524.77
2022-09-07T01:13:34.397Z,524.79
2022-09-07T01:13:46.433Z,524.81
2022-09-07T01:13:57.417Z,524.81
2022-09-07T01:14:09.427Z,524.81
2022-09-07T01:14:20.434Z,524.80
2022-09-07T01:14:31.446Z,524.77
2022-09-07T01:14:42.472Z,524.74
2022-09-07T01:14:53.560Z,524.73
2022-09-07T01:15:05.421Z,524.70
2022-09-07T01:15:16.427Z,524.68
2022-09-07T01:15:27.454Z,524.67
2022-09-07T01:15:38.506Z,524.67
2022-09-07T01:15:50.495Z,524.65
2022-09-07T01:16:01.490Z,524.63
2022-09-07T01:16:13.482Z,524.62
2022-09-07T01:16:24.470Z,524.62
2022-09-07T01:16:35.453Z,524.62
2022-09-07T01:16:47.457Z,524.61
2022-09-07T01:16:58.491Z,524.60
2022-09-07T01:17:10.393Z,524.59
2022-09-07T01:17:21.418Z,524.61
2022-09-07T01:17:32.425Z,524.61
2022-09-07T01:17:43.441Z,524.64
2022-09-07T01:17:55.444Z,524.65
2022-09-07T01:18:06.451Z,524.62
2022-09-07T01:18:17.464Z,524.65
2022-09-07T01:18:28.518Z,524.67
2022-09-07T01:18:40.401Z,524.65
2022-09-07T01:18:51.459Z,524.68
2022-09-07T01:19:02.466Z,524.70
2022-09-07T01:19:13.476Z,524.71
2022-09-07T01:19:24.486Z,524.74
2022-09-07T01:19:36.400Z,524.77
2022-09-07T01:19:47.403Z,524.78
2022-09-07T01:19:58.419Z,524.79
2022-09-07T01:20:09.460Z,524.83
2022-09-07T01:20:20.466Z,524.85
2022-09-07T01:20:31.529Z,524.88
2022-09-07T01:20:43.421Z,524.90
2022-09-07T01:20:54.432Z,524.92
2022-09-07T01:21:05.438Z,524.94
2022-09-07T01:21:16.457Z,524.93
2022-09-07T01:21:27.462Z,524.97
2022-09-07T01:21:38.470Z,525.00
2022-09-07T01:21:49.500Z,525.00
2022-09-07T01:22:00.393Z,525.04
2022-09-07T01:22:11.414Z,525.06
2022-09-07T01:22:22.435Z,525.07
2022-09-07T01:22:33.495Z,525.11
2022-09-07T01:22:44.474Z,525.11
2022-09-07T01:22:56.397Z,525.13
2022-09-07T01:23:07.409Z,525.12
2022-09-07T01:23:18.423Z,525.12
2022-09-07T01:23:29.429Z,525.14
2022-09-07T01:23:40.437Z,525.11
2022-09-07T01:23:51.448Z,525.13
2022-09-07T01:24:02.465Z,525.13
2022-09-07T01:24:13.479Z,525.14
2022-09-07T01:24:24.385Z,525.17
2022-09-07T01:24:35.396Z,525.17
2022-09-07T01:24:46.409Z,525.21
2022-09-07T01:24:57.416Z,525.19
2022-09-07T01:25:08.449Z,525.17
2022-09-07T01:25:19.446Z,525.18
2022-09-07T01:25:30.469Z,525.15
2022-09-07T01:25:41.471Z,525.16
2022-09-07T01:25:52.481Z,525.15
2022-09-07T01:26:03.483Z,525.12
2022-09-07T01:26:14.485Z,525.16
2022-09-07T01:26:26.402Z,525.17
2022-09-07T01:26:37.421Z,525.19
2022-09-07T01:26:48.413Z,525.19
2022-09-07T01:26:59.412Z,525.19
2022-09-07T01:27:10.423Z,525.22
2022-09-07T01:27:21.442Z,525.23
2022-09-07T01:27:32.461Z,525.26
2022-09-07T01:27:43.468Z,525.27
2022-09-07T01:27:54.480Z,525.29
2022-09-07T01:28:06.394Z,525.33
2022-09-07T01:28:17.426Z,525.32
2022-09-07T01:28:28.466Z,525.34
2022-09-07T01:28:39.433Z,525.34
2022-09-07T01:28:50.437Z,525.36
2022-09-07T01:29:01.450Z,525.35
2022-09-07T01:29:12.452Z,525.37
2022-09-07T01:29:24.461Z,525.36
2022-09-07T01:29:35.466Z,525.37
2022-09-07T01:29:46.489Z,525.39
2022-09-07T01:29:58.399Z,525.41
2022-09-07T01:30:09.408Z,525.41
2022-09-07T01:30:20.412Z,525.45
2022-09-07T01:30:31.416Z,525.46
2022-09-07T01:30:42.482Z,525.46
2022-09-07T01:30:53.529Z,525.48
2022-09-07T01:31:05.490Z,525.47
2022-09-07T01:31:16.500Z,525.44
2022-09-07T01:31:27.529Z,525.45
2022-09-07T01:31:38.392Z,525.43
2022-09-07T01:31:49.407Z,525.42
2022-09-07T01:32:00.412Z,525.42
2022-09-07T01:32:11.428Z,525.38
2022-09-07T01:32:22.441Z,525.35
2022-09-07T01:32:33.450Z,525.33
2022-09-07T01:32:44.461Z,525.31
2022-09-07T01:32:55.478Z,525.30
2022-09-07T01:33:06.484Z,525.27
2022-09-07T01:33:18.396Z,525.30
2022-09-07T01:33:29.405Z,525.29
2022-09-07T01:33:40.419Z,525.28
2022-09-07T01:33:51.422Z,525.28
2022-09-07T01:34:02.433Z,525.27
2022-09-07T01:34:13.440Z,525.30
2022-09-07T01:34:25.452Z,525.28
2022-09-07T01:34:36.450Z,525.25
2022-09-07T01:34:47.470Z,525.27
2022-09-07T01:34:58.477Z,525.28
2022-09-07T01:35:09.483Z,525.32
2022-09-07T01:35:21.430Z,525.32
2022-09-07T01:35:32.452Z,525.32
2022-09-07T01:35:43.440Z,525.36
2022-09-07T01:35:54.448Z,525.37
2022-09-07T01:36:05.461Z,525.39
2022-09-07T01:36:16.477Z,525.43
2022-09-07T01:36:28.483Z,525.45
2022-09-07T01:36:39.388Z,525.47
2022-09-07T01:36:50.397Z,525.49
2022-09-07T01:37:01.397Z,525.51
2022-09-07T01:37:12.408Z,525.56
2022-09-07T01:37:23.413Z,525.56
2022-09-07T01:37:34.427Z,525.58
2022-09-07T01:37:45.429Z,525.60
2022-09-07T01:37:57.278Z,525.62
2022-09-07T01:38:07.392Z,525.61
2022-09-07T01:38:18.403Z,525.61
2022-09-07T01:38:29.597Z,525.66
2022-09-07T01:38:40.470Z,525.65
2022-09-07T01:38:51.508Z,525.68
2022-09-07T01:39:03.407Z,525.75
2022-09-07T01:39:14.410Z,525.78
2022-09-07T01:39:25.467Z,525.76
2022-09-07T01:39:36.492Z,525.78
2022-09-07T01:39:47.570Z,525.81
2022-09-07T01:39:59.450Z,525.82
2022-09-07T01:40:10.534Z,525.85
2022-09-07T01:40:22.428Z,525.84
2022-09-07T01:40:33.434Z,525.83
2022-09-07T01:40:44.450Z,525.85
2022-09-07T01:40:55.456Z,525.86
2022-09-07T01:41:06.457Z,525.88
2022-09-07T01:41:17.466Z,525.89
2022-09-07T01:41:28.474Z,525.92
2022-09-07T01:41:39.483Z,525.94
2022-09-07T01:41:50.388Z,525.96
2022-09-07T01:42:02.391Z,525.96
2022-09-07T01:42:14.394Z,525.96
2022-09-07T01:42:25.427Z,525.98
2022-09-07T01:42:37.446Z,525.99
2022-09-07T01:42:48.424Z,525.98
2022-09-07T01:42:59.434Z,525.98
2022-09-07T01:43:11.442Z,526.00
2022-09-07T01:43:22.457Z,526.00
2022-09-07T01:43:33.461Z,526.03
2022-09-07T01:43:45.471Z,526.04
2022-09-07T01:43:56.475Z,526.05
2022-09-07T01:44:08.393Z,526.05
2022-09-07T01:44:20.395Z,526.08
2022-09-07T01:44:31.398Z,526.07
2022-09-07T01:44:42.404Z,526.06
2022-09-07T01:44:53.427Z,526.08
2022-09-07T01:45:04.435Z,526.07
2022-09-07T01:45:15.450Z,526.06
2022-09-07T01:45:26.451Z,526.06
2022-09-07T01:45:37.454Z,526.07
2022-09-07T01:45:48.465Z,526.08
2022-09-07T01:45:59.543Z,526.12
2022-09-07T01:46:11.477Z,526.09
2022-09-07T01:46:23.461Z,526.10
2022-09-07T01:46:34.516Z,526.09
2022-09-07T01:46:45.544Z,526.09
2022-09-07T01:46:57.418Z,526.09
2022-09-07T01:47:09.507Z,526.10
2022-09-07T01:47:21.406Z,526.09
2022-09-07T01:47:32.417Z,526.09
2022-09-07T01:47:44.425Z,526.07
2022-09-07T01:47:55.423Z,526.07
2022-09-07T01:48:06.430Z,526.07
2022-09-07T01:48:17.450Z,526.07
2022-09-07T01:48:29.465Z,526.08
2022-09-07T01:48:40.457Z,526.08
2022-09-07T01:48:52.465Z,526.07
2022-09-07T01:49:04.467Z,526.11
2022-09-07T01:49:15.476Z,526.13
2022-09-07T01:49:26.484Z,526.15
2022-09-07T01:49:37.408Z,526.17
2022-09-07T01:49:48.408Z,526.19
2022-09-07T01:49:59.439Z,526.15
2022-09-07T01:50:10.462Z,526.18
2022-09-07T01:50:21.470Z,526.25
2022-09-07T01:50:32.482Z,526.29
2022-09-07T01:50:44.400Z,526.33
2022-09-07T01:50:55.401Z,526.39
2022-09-07T01:51:06.406Z,526.43
2022-09-07T01:51:17.410Z,526.44
2022-09-07T01:51:28.436Z,526.51
2022-09-07T01:51:39.436Z,526.52
2022-09-07T01:51:50.444Z,526.59
2022-09-07T01:52:01.455Z,526.60
2022-09-07T01:52:12.462Z,526.62
2022-09-07T01:52:23.478Z,526.67
2022-09-07T01:52:35.479Z,526.69
2022-09-07T01:52:46.388Z,526.74
2022-09-07T01:52:57.396Z,526.81
2022-09-07T01:53:08.398Z,526.85
2022-09-07T01:53:20.398Z,526.85
2022-09-07T01:53:31.411Z,526.89
2022-09-07T01:53:42.417Z,526.92
2022-09-07T01:53:53.428Z,526.94
2022-09-07T01:54:04.424Z,526.96
2022-09-07T01:54:16.422Z,527.01
2022-09-07T01:54:28.427Z,527.01
2022-09-07T01:54:39.441Z,527.02
2022-09-07T01:54:50.446Z,527.06
2022-09-07T01:55:02.464Z,527.06
2022-09-07T01:55:13.467Z,527.08
2022-09-07T01:55:24.472Z,527.13
2022-09-07T01:55:35.484Z,527.15
2022-09-07T01:55:46.383Z,527.21
2022-09-07T01:55:57.388Z,527.22
2022-09-07T01:56:08.395Z,527.29
2022-09-07T01:56:20.404Z,527.28
2022-09-07T01:56:32.410Z,527.33
2022-09-07T01:56:44.414Z,527.37
2022-09-07T01:56:55.414Z,527.40
2022-09-07T01:57:07.422Z,527.45
2022-09-07T01:57:18.421Z,527.49
2022-09-07T01:57:29.433Z,527.51
2022-09-07T01:57:40.440Z,527.52
2022-09-07T01:57:52.473Z,527.55
2022-09-07T01:58:03.480Z,527.55
2022-09-07T01:58:14.486Z,527.59
2022-09-07T01:58:26.524Z,527.64
2022-09-07T01:58:38.403Z,527.66
2022-09-07T01:58:49.410Z,527.66
2022-09-07T01:59:00.417Z,527.69
2022-09-07T01:59:11.420Z,527.73
2022-09-07T01:59:22.424Z,527.76
2022-09-07T01:59:34.422Z,527.81
2022-09-07T01:59:45.445Z,527.84
2022-09-07T01:59:57.463Z,527.88
2022-09-07T02:00:08.470Z,527.96
2022-09-07T02:00:20.472Z,527.98
2022-09-07T02:00:31.476Z,528.02
2022-09-07T02:00:43.394Z,528.06
2022-09-07T02:00:54.411Z,528.10
2022-09-07T02:01:06.415Z,528.13
2022-09-07T02:01:17.478Z,528.16
2022-09-07T02:01:28.509Z,528.19
2022-09-07T02:01:40.501Z,528.24
2022-09-07T02:01:51.592Z,528.25
2022-09-07T02:02:02.490Z,528.30
2022-09-07T02:02:14.532Z,528.31
2022-09-07T02:02:26.453Z,528.37
2022-09-07T02:02:37.484Z,528.39
2022-09-07T02:02:48.502Z,528.40
2022-09-07T02:02:59.597Z,528.45
2022-09-07T02:03:11.488Z,528.47
2022-09-07T02:03:22.478Z,528.49
2022-09-07T02:03:34.390Z,528.49
2022-09-07T02:03:45.398Z,528.53
2022-09-07T02:03:56.404Z,528.54
2022-09-07T02:04:07.416Z,528.54
2022-09-07T02:04:18.434Z,528.56
2022-09-07T02:04:29.441Z,528.56
2022-09-07T02:04:40.449Z,528.57
2022-09-07T02:04:51.449Z,528.60
2022-09-07T02:05:03.469Z,528.62
2022-09-07T02:05:14.483Z,528.64
2022-09-07T02:05:26.393Z,528.66
2022-09-07T02:05:37.402Z,528.68
2022-09-07T02:05:48.417Z,528.68
2022-09-07T02:05:59.430Z,528.71
2022-09-07T02:06:11.433Z,528.75
2022-09-07T02:06:23.439Z,528.73
2022-09-07T02:06:34.456Z,528.77
2022-09-07T02:06:46.524Z,528.80
2022-09-07T02:06:58.419Z,528.82
2022-09-07T02:07:09.422Z,528.83
2022-09-07T02:07:20.425Z,528.83
2022-09-07T02:07:32.432Z,528.85
2022-09-07T02:07:43.435Z,528.87
2022-09-07T02:07:54.446Z,528.83
2022-09-07T02:08:05.448Z,528.84
2022-09-07T02:08:17.454Z,528.85
2022-09-07T02:08:28.510Z,528.83
2022-09-07T02:08:39.473Z,528.85
2022-09-07T02:08:51.390Z,528.83
2022-09-07T02:09:02.393Z,528.81
2022-09-07T02:09:13.395Z,528.77
2022-09-07T02:09:25.403Z,528.79
2022-09-07T02:09:36.411Z,528.79
2022-09-07T02:09:47.423Z,528.81
2022-09-07T02:09:59.446Z,528.84
2022-09-07T02:10:10.450Z,528.83
2022-09-07T02:10:21.456Z,528.79
2022-09-07T02:10:32.466Z,528.83
2022-09-07T02:10:44.393Z,528.82
2022-09-07T02:10:56.399Z,528.82
2022-09-07T02:11:07.395Z,528.81
2022-09-07T02:11:18.400Z,528.82
2022-09-07T02:11:29.411Z,528.83
2022-09-07T02:11:40.416Z,528.84
2022-09-07T02:11:52.413Z,528.86
2022-09-07T02:12:03.425Z,528.90
2022-09-07T02:12:14.421Z,528.90
2022-09-07T02:12:26.423Z,528.92
2022-09-07T02:12:38.428Z,528.95
2022-09-07T02:12:49.428Z,528.95
2022-09-07T02:13:00.424Z,528.99
2022-09-07T02:13:11.431Z,528.98
2022-09-07T02:13:22.449Z,529.02
2022-09-07T02:13:33.462Z,529.03
2022-09-07T02:13:44.477Z,529.02
2022-09-07T02:13:55.384Z,529.04
2022-09-07T02:14:06.391Z,529.05
2022-09-07T02:14:18.409Z,529.09
2022-09-07T02:14:29.409Z,529.09
2022-09-07T02:14:40.423Z,529.10
2022-09-07T02:14:52.840Z,529.12
2022-09-07T02:15:03.419Z,529.16
2022-09-07T02:15:14.431Z,529.16
2022-09-07T02:15:25.428Z,529.18
2022-09-07T02:15:36.536Z,529.19
2022-09-07T02:15:48.456Z,529.21
2022-09-07T02:15:59.460Z,529.22
2022-09-07T02:16:10.476Z,529.25
2022-09-07T02:16:21.490Z,529.27
2022-09-07T02:16:32.469Z,529.29
2022-09-07T02:16:43.474Z,529.29
2022-09-07T02:16:54.389Z,529.31
2022-09-07T02:17:05.401Z,529.32
2022-09-07T02:17:16.415Z,529.32
2022-09-07T02:17:28.416Z,529.33
2022-09-07T02:17:39.420Z,529.35
2022-09-07T02:17:50.419Z,529.36
2022-09-07T02:18:02.483Z,529.36
2022-09-07T02:18:14.393Z,529.38
2022-09-07T02:18:25.400Z,529.39
2022-09-07T02:18:36.402Z,529.40
2022-09-07T02:18:47.416Z,529.43
2022-09-07T02:18:58.423Z,529.45
2022-09-07T02:19:10.427Z,529.46
2022-09-07T02:19:21.436Z,529.46
2022-09-07T02:19:32.446Z,529.47
2022-09-07T02:19:43.460Z,529.47
2022-09-07T02:19:54.472Z,529.47
2022-09-07T02:20:05.488Z,529.49
2022-09-07T02:20:17.394Z,529.49
2022-09-07T02:20:28.405Z,529.51